Shimanami Star — C6VN9 — position and weather

sailwx.info

Track history (hours):
 
Tides and Currents Weather Stations Pressure Air Temp Water Temp Dewpoint Dewpoint Depression Visibility Wind Speed Wind Dir Waves Ship Positions

Shimanami Star

Last reported at 2017-Jan-04 06:15 UTC. Time now 2017-Jan-19 19:23 UTC.
Position N 35°57' W 006°08'.
Warning: this ship's position is 15 days out of date.

Length 170 m; draft 8.6 m.

Type: Cargo ship. MMSI: 309116000.

Date/timePositionNaut miles runAvg speedWind from/ knotsBaromVisibWave heightAir tempDewpointWater temp
2017-Jan-04 06:15N 35°57' W 006°08'811.0
2017-Jan-04 05:33N 35°57' W 005°58'1111.0
2017-Jan-04 04:32N 35°57' W 005°45'1110.9
2017-Jan-04 03:33N 35°59' W 005°31'9 8.8
2017-Jan-04 02:33N 36°05' W 005°23'4 3.5
2017-Jan-04 01:33N 36°08' W 005°22'0 0.1
2017-Jan-04 00:33N 36°08' W 005°22'0 0.1
2017-Jan-03 23:33N 36°08' W 005°22'0 0.0
2017-Jan-03 22:33N 36°08' W 005°22'0 0.0
2017-Jan-03 21:30N 36°08' W 005°22'0 0.0
2017-Jan-03 20:33N 36°08' W 005°22'0 0.1
2017-Jan-03 19:21N 36°08' W 005°22'3 3.2
2017-Jan-03 18:33N 36°05' W 005°21'8 7.8
2017-Jan-03 17:29N 36°06' W 005°11'13111.7
2017-Jan-03 06:19N 36°24' W 002°30'1312.3
2017-Jan-03 05:17N 36°26' W 002°14'1012.2
2017-Jan-03 04:30N 36°27' W 002°02'11012.3
2017-Jan-02 19:32N 36°45' E 000°12'  
2016-Dec-31 10:27N 36°01' E 013°51'1112.5
2016-Dec-31 09:33N 35°55' E 014°02'1212.4
2016-Dec-31 08:33N 35°48' E 014°15'1312.6
2016-Dec-31 07:33N 35°42' E 014°29'  
Track history (hours):
 
Tides and Currents Weather Stations Pressure Air Temp Water Temp Dewpoint Dewpoint Depression Visibility Wind Speed Wind Dir Waves Ship Positions

Shimanami Star

Last reported at 2017-Jan-04 06:15 UTC. Time now 2017-Jan-19 19:23 UTC.
Position N 35°57' W 006°08'.
Warning: this ship's position is 15 days out of date.

Length 170 m; draft 8.6 m.

Type: Cargo ship. MMSI: 309116000.

Date/timePositionNaut miles runAvg speedWind from/ knotsBaromVisibWave heightAir tempDewpointWater temp
2017-Jan-04 06:15N 35°57' W 006°08'811.0
2017-Jan-04 05:33N 35°57' W 005°58'1111.0
2017-Jan-04 04:32N 35°57' W 005°45'1110.9
2017-Jan-04 03:33N 35°59' W 005°31'9 8.8
2017-Jan-04 02:33N 36°05' W 005°23'4 3.5
2017-Jan-04 01:33N 36°08' W 005°22'0 0.1
2017-Jan-04 00:33N 36°08' W 005°22'0 0.1
2017-Jan-03 23:33N 36°08' W 005°22'0 0.0
2017-Jan-03 22:33N 36°08' W 005°22'0 0.0
2017-Jan-03 21:30N 36°08' W 005°22'0 0.0
2017-Jan-03 20:33N 36°08' W 005°22'0 0.1
2017-Jan-03 19:21N 36°08' W 005°22'3 3.2
2017-Jan-03 18:33N 36°05' W 005°21'8 7.8
2017-Jan-03 17:29N 36°06' W 005°11'13111.7
2017-Jan-03 06:19N 36°24' W 002°30'1312.3
2017-Jan-03 05:17N 36°26' W 002°14'1012.2
2017-Jan-03 04:30N 36°27' W 002°02'11012.3
2017-Jan-02 19:32N 36°45' E 000°12'  
2016-Dec-31 10:27N 36°01' E 013°51'1112.5
2016-Dec-31 09:33N 35°55' E 014°02'1212.4
2016-Dec-31 08:33N 35°48' E 014°15'1312.6
2016-Dec-31 07:33N 35°42' E 014°29'  

Dump ship's entire track history